ADDS METAR Data INFO
IDs: Format: Raw Decoded Include TAF

Data at: 0158 UTC 18 Oct 2017

METAR for:KSPB (Scappoose Ind Airpar, OR, US)
Text:KSPB 180153Z AUTO 00000KT 4SM BR CLR 10/10 A3013 RMK AO2 SLP201 T01000100 $
Temperature: 10.0°C ( 50°F)
Dewpoint: 10.0°C ( 50°F) [RH = 100%]
Pressure (altimeter):30.13 inches Hg (1020.4 mb) [Sea level pressure: 1020.1 mb]
Winds:calm
Visibility: 4 sm ( 6 km)
Ceiling:at least 12,000 feet AGL
Clouds:sky clear below 12,000 feet AGL
Weather:BR (mist)
QC Flag:automated observation with no human augmentation; SOME DATA ABOVE MAY BE INACCURATE!!!"$" is an indication the sensor requires maintenance.